createdAt,value
2019-02-21T00:01:36.297Z,79.87
2019-02-21T00:04:03.892Z,80.31
2019-02-21T00:06:31.231Z,80.58
2019-02-21T00:08:58.399Z,81.10
2019-02-21T00:11:25.581Z,81.40
2019-02-21T00:13:52.853Z,81.80
2019-02-21T00:16:20.049Z,82.16
2019-02-21T00:18:47.215Z,82.22
2019-02-21T00:21:14.526Z,82.40
2019-02-21T00:23:41.584Z,82.18
2019-02-21T00:26:08.860Z,82.10
2019-02-21T00:28:36.064Z,82.27
2019-02-21T00:31:03.262Z,82.45
2019-02-21T00:33:30.536Z,82.81
2019-02-21T00:35:57.654Z,82.93
2019-02-21T00:38:24.907Z,83.45
2019-02-21T00:40:52.291Z,83.81
2019-02-21T00:43:19.603Z,84.00
2019-02-21T00:45:46.756Z,84.01
2019-02-21T00:48:13.838Z,84.17
2019-02-21T00:50:40.976Z,84.27
2019-02-21T00:53:08.127Z,84.41
2019-02-21T00:55:35.282Z,84.31
2019-02-21T00:58:02.536Z,84.35
2019-02-21T01:00:29.801Z,84.54
2019-02-21T01:02:56.967Z,84.49
2019-02-21T01:05:24.194Z,84.65
2019-02-21T01:07:51.352Z,84.99
2019-02-21T01:10:18.810Z,85.27
2019-02-21T01:12:46.130Z,85.38
2019-02-21T01:15:13.420Z,85.51
2019-02-21T01:17:40.618Z,85.56
2019-02-21T01:20:07.921Z,85.75
2019-02-21T01:22:35.381Z,85.93
2019-02-21T01:25:03.054Z,86.13
2019-02-21T01:27:30.621Z,86.29
2019-02-21T01:29:57.932Z,86.55
2019-02-21T01:32:25.091Z,86.70
2019-02-21T01:34:52.381Z,86.71
2019-02-21T01:37:20.039Z,86.69
2019-02-21T01:39:47.239Z,86.67
2019-02-21T01:42:14.426Z,86.51
2019-02-21T01:44:41.677Z,86.63
2019-02-21T01:47:08.740Z,86.89
2019-02-21T01:49:36.283Z,86.98
2019-02-21T01:52:03.470Z,86.98
2019-02-21T01:54:30.735Z,87.04
2019-02-21T01:56:57.934Z,87.08
2019-02-21T01:59:25.481Z,87.18
2019-02-21T02:01:52.715Z,87.35
2019-02-21T02:04:19.869Z,87.47
2019-02-21T02:06:47.419Z,87.62
2019-02-21T02:09:14.583Z,87.77
2019-02-21T02:11:41.898Z,87.83
2019-02-21T02:14:09.145Z,87.76
2019-02-21T02:16:36.365Z,87.81
2019-02-21T02:19:03.603Z,87.79
2019-02-21T02:21:30.746Z,87.84
2019-02-21T02:23:57.898Z,88.04
2019-02-21T02:26:25.261Z,88.02
2019-02-21T02:28:52.420Z,87.90
2019-02-21T02:31:23.427Z,87.87
2019-02-21T02:33:48.876Z,87.83
2019-02-21T02:36:16.346Z,87.82
2019-02-21T02:38:43.519Z,87.90
2019-02-21T02:41:10.958Z,88.07
2019-02-21T02:43:38.214Z,88.43
2019-02-21T02:46:05.364Z,88.83
2019-02-21T02:48:32.632Z,89.01
2019-02-21T02:50:59.698Z,89.15
2019-02-21T02:53:26.845Z,89.09
2019-02-21T02:55:54.065Z,88.81
2019-02-21T02:58:21.297Z,87.99
2019-02-21T03:00:49.181Z,86.98
2019-02-21T03:03:16.448Z,85.83
2019-02-21T03:05:43.580Z,84.83
2019-02-21T03:08:10.820Z,83.95
2019-02-21T03:10:37.953Z,83.10
2019-02-21T03:13:05.231Z,82.27
2019-02-21T03:15:32.296Z,81.80
2019-02-21T03:17:59.374Z,81.40
2019-02-21T03:20:26.529Z,81.08
2019-02-21T03:22:53.724Z,80.79
2019-02-21T03:25:21.944Z,80.62
2019-02-21T03:27:49.172Z,80.12
2019-02-21T03:30:16.369Z,79.89
2019-02-21T03:32:44.028Z,80.08
2019-02-21T03:35:11.266Z,80.19
2019-02-21T03:37:38.493Z,80.32
2019-02-21T03:40:06.537Z,80.27
2019-02-21T03:42:33.740Z,79.92
2019-02-21T03:45:00.940Z,79.38
2019-02-21T03:47:28.178Z,79.47
2019-02-21T03:49:55.352Z,79.36
2019-02-21T03:52:22.529Z,79.31
2019-02-21T03:54:49.735Z,79.43
2019-02-21T03:57:17.112Z,79.55
2019-02-21T03:59:44.305Z,79.42
2019-02-21T04:02:11.503Z,79.29
2019-02-21T04:04:39.678Z,79.56
2019-02-21T04:07:06.980Z,79.92
2019-02-21T04:09:34.215Z,80.36
2019-02-21T04:12:01.499Z,80.89
2019-02-21T04:14:29.808Z,81.29
2019-02-21T04:16:57.390Z,81.44
2019-02-21T04:19:24.652Z,80.96
2019-02-21T04:21:51.884Z,80.70
2019-02-21T04:24:19.202Z,80.78
2019-02-21T04:26:46.384Z,81.00
2019-02-21T04:29:13.550Z,81.64
2019-02-21T04:31:40.768Z,82.31
2019-02-21T04:34:08.289Z,83.02
2019-02-21T04:36:35.435Z,83.56
2019-02-21T04:39:04.087Z,83.84
2019-02-21T04:41:31.451Z,84.36
2019-02-21T04:43:58.629Z,84.60
2019-02-21T04:46:25.886Z,85.02
2019-02-21T04:48:54.948Z,85.25
2019-02-21T04:51:22.195Z,85.64
2019-02-21T04:53:49.487Z,85.82
2019-02-21T04:56:16.664Z,86.08
2019-02-21T04:58:43.913Z,86.35
2019-02-21T05:01:11.099Z,86.53
2019-02-21T05:03:38.381Z,86.79
2019-02-21T05:06:05.530Z,87.10
2019-02-21T05:08:32.840Z,87.15
2019-02-21T05:11:00.308Z,87.39
2019-02-21T05:13:27.600Z,87.53
2019-02-21T05:15:54.863Z,87.48
2019-02-21T05:18:22.037Z,87.56
2019-02-21T05:20:49.088Z,87.92
2019-02-21T05:23:16.412Z,88.13
2019-02-21T05:25:43.542Z,88.24
2019-02-21T05:28:30.651Z,88.26
2019-02-21T05:31:29.268Z,88.21
2019-02-21T05:34:01.497Z,88.04
2019-02-21T05:36:54.546Z,87.92
2019-02-21T05:39:37.032Z,87.86
2019-02-21T05:42:12.957Z,87.87
2019-02-21T05:44:45.240Z,87.93
2019-02-21T05:47:30.680Z,88.17
2019-02-21T05:50:23.399Z,88.33
2019-02-21T05:53:11.186Z,88.36
2019-02-21T05:55:47.589Z,88.42
2019-02-21T05:58:38.777Z,88.43
2019-02-21T06:01:12.512Z,88.40
2019-02-21T06:03:56.830Z,88.40
2019-02-21T06:06:43.656Z,88.42
2019-02-21T06:09:30.409Z,88.55
2019-02-21T06:12:12.501Z,88.65
2019-02-21T06:15:18.342Z,88.68
2019-02-21T06:18:05.139Z,88.81
2019-02-21T06:20:50.208Z,88.84
2019-02-21T06:23:39.311Z,88.97
2019-02-21T06:26:20.126Z,88.99
2019-02-21T06:28:54.584Z,88.88
2019-02-21T06:31:22.116Z,88.74
2019-02-21T06:33:49.695Z,88.70
2019-02-21T06:36:17.005Z,88.78
2019-02-21T06:38:44.477Z,88.85
2019-02-21T06:41:11.991Z,88.92
2019-02-21T06:43:39.241Z,88.93
2019-02-21T06:46:06.809Z,89.03
2019-02-21T06:48:34.946Z,89.14
2019-02-21T06:51:02.127Z,89.22
2019-02-21T06:53:29.389Z,89.28
2019-02-21T06:55:56.572Z,89.23
2019-02-21T06:58:24.144Z,89.13
2019-02-21T07:00:51.440Z,88.99
2019-02-21T07:03:19.189Z,88.81
2019-02-21T07:05:46.366Z,88.51
2019-02-21T07:08:13.581Z,87.98
2019-02-21T07:10:40.645Z,87.40
2019-02-21T07:13:07.956Z,85.81
2019-02-21T07:15:35.109Z,82.04
2019-02-21T07:18:02.201Z,80.62
2019-02-21T07:20:30.721Z,79.41
2019-02-21T07:22:57.934Z,78.33
2019-02-21T07:25:44.852Z,77.67
2019-02-21T07:28:15.586Z,76.76
2019-02-21T07:30:42.934Z,76.84
2019-02-21T07:33:10.296Z,76.55
2019-02-21T07:35:37.389Z,75.54
2019-02-21T07:38:04.563Z,73.39
2019-02-21T07:40:31.776Z,68.57
2019-02-21T07:42:58.970Z,63.92
2019-02-21T07:45:26.280Z,59.49
2019-02-21T07:47:53.444Z,58.01
2019-02-21T07:50:23.065Z,55.22
2019-02-21T07:52:50.160Z,51.26
2019-02-21T07:55:17.338Z,48.40
2019-02-21T07:57:44.556Z,49.86
2019-02-21T08:00:12.338Z,50.74
2019-02-21T08:02:39.484Z,50.70
2019-02-21T08:05:06.846Z,50.34
2019-02-21T08:07:33.953Z,50.42
2019-02-21T08:10:01.163Z,52.14
2019-02-21T08:12:28.360Z,53.86
2019-02-21T08:14:56.366Z,55.23
2019-02-21T08:17:23.598Z,56.90
2019-02-21T08:19:50.792Z,58.72
2019-02-21T08:22:17.972Z,59.69
2019-02-21T08:24:46.068Z,60.86
2019-02-21T08:27:13.372Z,61.22
2019-02-21T08:29:40.537Z,62.29
2019-02-21T08:32:08.370Z,63.30
2019-02-21T08:34:39.752Z,63.83
2019-02-21T08:37:08.837Z,64.34
2019-02-21T08:39:36.138Z,64.42
2019-02-21T08:42:03.372Z,64.70
2019-02-21T08:44:30.578Z,64.87
2019-02-21T08:46:57.816Z,64.91
2019-02-21T08:49:24.982Z,64.55
2019-02-21T08:51:54.854Z,64.33
2019-02-21T08:54:21.334Z,64.32
2019-02-21T08:56:48.584Z,64.30
2019-02-21T08:59:15.744Z,64.11
2019-02-21T09:01:42.962Z,63.73
2019-02-21T09:04:24.115Z,63.71
2019-02-21T09:06:39.312Z,63.98
2019-02-21T09:09:07.136Z,63.96
2019-02-21T09:11:34.344Z,63.80
2019-02-21T09:14:01.484Z,63.99
2019-02-21T09:16:28.914Z,62.43
2019-02-21T09:18:56.069Z,61.27
2019-02-21T09:21:23.248Z,60.47
2019-02-21T09:23:50.438Z,59.74
2019-02-21T09:26:17.552Z,58.80
2019-02-21T09:28:44.731Z,57.73
2019-02-21T09:31:11.902Z,57.57
2019-02-21T09:33:39.432Z,57.77
2019-02-21T09:36:07.191Z,56.88
2019-02-21T09:38:34.965Z,57.13
2019-02-21T09:41:02.790Z,57.59
2019-02-21T09:43:29.980Z,58.23
2019-02-21T09:45:57.176Z,58.57
2019-02-21T09:48:24.362Z,57.90
2019-02-21T09:50:51.448Z,57.30
2019-02-21T09:53:18.655Z,57.15
2019-02-21T09:55:45.809Z,56.98
2019-02-21T09:58:13.150Z,57.70
2019-02-21T10:00:40.325Z,57.89
2019-02-21T10:03:07.591Z,58.03
2019-02-21T10:05:34.791Z,57.01
2019-02-21T10:08:01.974Z,56.10
2019-02-21T10:10:29.139Z,55.33
2019-02-21T10:12:56.573Z,55.98
2019-02-21T10:15:23.823Z,56.74
2019-02-21T10:17:51.082Z,57.07
2019-02-21T10:20:18.630Z,57.11
2019-02-21T10:22:45.863Z,57.29
2019-02-21T10:25:23.126Z,57.65
2019-02-21T10:27:50.261Z,58.09
2019-02-21T10:30:18.729Z,58.49
2019-02-21T10:32:45.879Z,58.21
2019-02-21T10:35:13.237Z,57.45
2019-02-21T10:37:40.504Z,56.07
2019-02-21T10:40:09.133Z,56.43
2019-02-21T10:42:36.581Z,55.76
2019-02-21T10:45:05.584Z,54.67
2019-02-21T10:47:32.865Z,54.14
2019-02-21T10:50:00.332Z,53.81
2019-02-21T10:52:27.756Z,53.60
2019-02-21T10:54:54.851Z,51.65
2019-02-21T10:57:22.056Z,51.73
2019-02-21T10:59:49.571Z,52.39
2019-02-21T11:02:17.227Z,52.48
2019-02-21T11:04:54.376Z,52.33
2019-02-21T11:07:13.947Z,52.24
2019-02-21T11:09:41.235Z,51.43
2019-02-21T11:12:08.867Z,51.08
2019-02-21T11:14:46.919Z,51.17
2019-02-21T11:17:05.115Z,51.19
2019-02-21T11:19:32.456Z,51.60
2019-02-21T11:21:59.601Z,51.98
2019-02-21T11:24:26.829Z,51.66
2019-02-21T11:26:54.041Z,50.80
2019-02-21T11:29:21.225Z,50.23
2019-02-21T11:31:48.439Z,49.12
2019-02-21T11:34:15.652Z,49.27
2019-02-21T11:36:42.815Z,49.69
2019-02-21T11:39:10.159Z,49.26
2019-02-21T11:41:37.252Z,50.38
2019-02-21T11:44:04.484Z,50.84
2019-02-21T11:46:31.698Z,51.21
2019-02-21T11:48:58.898Z,52.50
2019-02-21T11:51:26.080Z,52.48
2019-02-21T11:53:53.730Z,51.83
2019-02-21T11:56:20.912Z,50.75
2019-02-21T11:58:48.100Z,50.21
2019-02-21T12:01:15.294Z,49.70
2019-02-21T12:03:42.530Z,50.39
2019-02-21T12:06:09.720Z,51.44
2019-02-21T12:08:36.932Z,51.99
2019-02-21T12:11:04.144Z,53.19
2019-02-21T12:13:31.358Z,54.30
2019-02-21T12:15:59.157Z,54.54
2019-02-21T12:18:26.494Z,53.53
2019-02-21T12:20:53.610Z,52.30
2019-02-21T12:23:20.814Z,51.06
2019-02-21T12:25:48.373Z,51.09
2019-02-21T12:28:15.620Z,50.48
2019-02-21T12:30:42.822Z,50.88
2019-02-21T12:33:10.030Z,50.98
2019-02-21T12:35:37.243Z,51.45
2019-02-21T12:38:04.510Z,51.77
2019-02-21T12:40:31.799Z,51.63
2019-02-21T12:42:59.419Z,51.49
2019-02-21T12:45:26.557Z,51.38
2019-02-21T12:47:54.300Z,51.45
2019-02-21T12:50:22.287Z,51.70
2019-02-21T12:52:49.475Z,51.51
2019-02-21T12:55:27.350Z,50.31
2019-02-21T12:57:45.955Z,50.52
2019-02-21T13:00:15.977Z,51.34
2019-02-21T13:02:44.085Z,51.70
2019-02-21T13:05:11.760Z,51.56
2019-02-21T13:07:39.460Z,51.47
2019-02-21T13:10:09.585Z,51.40
2019-02-21T13:12:36.868Z,50.90
2019-02-21T13:15:04.878Z,50.81
2019-02-21T13:17:32.682Z,51.06
2019-02-21T13:19:59.854Z,50.79
2019-02-21T13:22:27.149Z,50.64
2019-02-21T13:24:54.727Z,50.42
2019-02-21T13:27:21.955Z,49.68
2019-02-21T13:29:49.548Z,49.51
2019-02-21T13:32:16.837Z,49.51
2019-02-21T13:34:43.960Z,48.15
2019-02-21T13:37:11.149Z,48.93
2019-02-21T13:39:38.382Z,48.34
2019-02-21T13:42:05.675Z,49.36
2019-02-21T13:44:34.010Z,49.50
2019-02-21T13:47:01.124Z,49.53
2019-02-21T13:49:28.407Z,49.68
2019-02-21T13:51:55.553Z,50.51
2019-02-21T13:54:22.729Z,51.67
2019-02-21T13:56:49.999Z,52.80
2019-02-21T13:59:17.184Z,53.46
2019-02-21T14:01:44.588Z,53.81
2019-02-21T14:04:11.770Z,53.94
2019-02-21T14:06:38.940Z,54.48
2019-02-21T14:09:06.751Z,54.75
2019-02-21T14:11:33.958Z,54.52
2019-02-21T14:14:01.131Z,54.39
2019-02-21T14:16:28.356Z,55.10
2019-02-21T14:18:56.119Z,55.19
2019-02-21T14:21:23.353Z,55.66
2019-02-21T14:23:50.524Z,56.25
2019-02-21T14:26:17.761Z,56.66
2019-02-21T14:28:44.886Z,57.32
2019-02-21T14:31:12.252Z,57.35
2019-02-21T14:33:39.353Z,57.55
2019-02-21T14:36:15.108Z,58.05
2019-02-21T14:38:37.905Z,58.26
2019-02-21T14:41:05.367Z,58.34
2019-02-21T14:43:32.606Z,58.38
2019-02-21T14:46:02.504Z,58.73
2019-02-21T14:48:29.885Z,59.09
2019-02-21T14:51:09.346Z,59.49
2019-02-21T14:53:36.561Z,59.52
2019-02-21T14:56:44.889Z,59.82
2019-02-21T15:02:32.711Z,60.19
2019-02-21T15:10:41.262Z,60.70
2019-02-21T15:13:08.495Z,61.15
2019-02-21T15:15:36.012Z,61.52
2019-02-21T15:18:43.943Z,62.01
2019-02-21T15:21:11.139Z,62.57
2019-02-21T15:26:37.677Z,63.39
2019-02-21T15:29:05.133Z,64.07
2019-02-21T15:35:12.339Z,63.96
2019-02-21T15:38:00.542Z,63.58
2019-02-21T15:41:29.032Z,63.09
2019-02-21T15:43:56.586Z,62.76
2019-02-21T15:46:23.806Z,62.33
2019-02-21T15:48:51.143Z,62.18
2019-02-21T15:51:18.824Z,62.10
2019-02-21T15:53:46.451Z,62.11
2019-02-21T15:56:13.671Z,62.07
2019-02-21T15:58:40.855Z,62.04
2019-02-21T16:01:08.058Z,62.13
2019-02-21T16:03:35.696Z,62.22
2019-02-21T16:06:02.810Z,62.39
2019-02-21T16:08:29.997Z,62.55
2019-02-21T16:10:57.264Z,62.76
2019-02-21T16:13:24.913Z,62.93
2019-02-21T16:15:52.444Z,63.08
2019-02-21T16:18:19.674Z,63.23
2019-02-21T16:20:47.194Z,63.38
2019-02-21T16:23:14.316Z,63.62
2019-02-21T16:25:41.617Z,63.84
2019-02-21T16:28:09.137Z,64.03
2019-02-21T16:30:36.315Z,64.23
2019-02-21T16:33:03.517Z,64.48
2019-02-21T16:35:30.576Z,64.80
2019-02-21T16:37:57.747Z,64.91
2019-02-21T16:40:25.646Z,65.10
2019-02-21T16:42:52.948Z,65.19
2019-02-21T16:45:20.132Z,65.40
2019-02-21T16:47:47.338Z,65.66
2019-02-21T16:50:14.521Z,65.79
2019-02-21T16:52:41.851Z,65.90
2019-02-21T16:55:11.470Z,66.00
2019-02-21T16:57:38.675Z,66.10
2019-02-21T17:00:07.284Z,66.34
2019-02-21T17:02:34.471Z,66.54
2019-02-21T17:05:01.568Z,66.67
2019-02-21T17:07:28.875Z,66.81
2019-02-21T17:09:56.088Z,66.97
2019-02-21T17:12:23.639Z,67.23
2019-02-21T17:14:51.216Z,67.56
2019-02-21T17:17:19.001Z,67.89
2019-02-21T17:19:46.208Z,68.06
2019-02-21T17:22:13.413Z,68.26
2019-02-21T17:24:40.588Z,68.29
2019-02-21T17:27:07.775Z,68.35
2019-02-21T17:29:35.058Z,68.54
2019-02-21T17:32:02.289Z,68.55
2019-02-21T17:34:29.586Z,68.70
2019-02-21T17:36:56.847Z,69.27
2019-02-21T17:39:24.067Z,70.01
2019-02-21T17:41:51.246Z,70.96
2019-02-21T17:44:18.468Z,71.69
2019-02-21T17:46:45.553Z,72.25
2019-02-21T17:49:12.714Z,72.72
2019-02-21T17:51:40.457Z,72.95
2019-02-21T17:54:07.679Z,73.04
2019-02-21T17:56:35.149Z,73.10
2019-02-21T17:59:02.633Z,73.29
2019-02-21T18:01:29.966Z,73.28
2019-02-21T18:03:57.494Z,73.20
2019-02-21T18:06:24.737Z,73.07
2019-02-21T18:08:54.893Z,73.08
2019-02-21T18:11:21.406Z,73.16
2019-02-21T18:13:48.631Z,73.31
2019-02-21T18:16:15.858Z,73.34
2019-02-21T18:18:43.040Z,73.38
2019-02-21T18:21:10.448Z,73.47
2019-02-21T18:23:37.669Z,73.41
2019-02-21T18:26:11.962Z,73.42
2019-02-21T18:28:39.115Z,73.67
2019-02-21T18:31:06.401Z,73.49
2019-02-21T18:33:33.497Z,73.44
2019-02-21T18:36:00.754Z,73.66
2019-02-21T18:38:27.975Z,73.74
2019-02-21T18:40:55.283Z,73.93
2019-02-21T18:43:23.137Z,74.08
2019-02-21T18:45:51.051Z,74.16
2019-02-21T18:48:18.303Z,74.10
2019-02-21T18:50:45.501Z,74.11
2019-02-21T18:53:13.089Z,74.01
2019-02-21T18:55:40.660Z,73.92
2019-02-21T18:58:08.273Z,73.84
2019-02-21T19:00:35.491Z,73.72
2019-02-21T19:03:02.681Z,73.67
2019-02-21T19:05:35.918Z,73.58
2019-02-21T19:08:05.264Z,73.50
2019-02-21T19:10:28.208Z,73.42
2019-02-21T19:12:55.622Z,73.38
2019-02-21T19:15:25.075Z,73.36
2019-02-21T19:17:52.190Z,73.19
2019-02-21T19:20:19.506Z,73.24
2019-02-21T19:22:46.674Z,73.27
2019-02-21T19:25:14.060Z,73.31
2019-02-21T19:27:41.301Z,73.27
2019-02-21T19:30:12.408Z,73.17
2019-02-21T19:32:39.806Z,73.14
2019-02-21T19:35:07.396Z,73.14
2019-02-21T19:37:34.598Z,73.22
2019-02-21T19:40:01.787Z,73.28
2019-02-21T19:42:29.319Z,73.31
2019-02-21T19:44:56.608Z,73.31
2019-02-21T19:47:23.770Z,73.23
2019-02-21T19:49:51.357Z,73.08
2019-02-21T19:52:18.443Z,73.07
2019-02-21T19:54:45.652Z,73.01
2019-02-21T19:57:12.852Z,73.06
2019-02-21T19:59:40.082Z,73.05
2019-02-21T20:02:07.344Z,73.04
2019-02-21T20:04:34.568Z,73.16
2019-02-21T20:07:01.786Z,73.12
2019-02-21T20:09:29.095Z,73.23
2019-02-21T20:11:56.600Z,73.24
2019-02-21T20:14:24.830Z,73.35
2019-02-21T20:16:52.028Z,73.41
2019-02-21T20:19:19.273Z,73.40
2019-02-21T20:21:46.451Z,73.50
2019-02-21T20:24:14.174Z,73.60
2019-02-21T20:26:41.376Z,73.51
2019-02-21T20:29:08.610Z,73.47
2019-02-21T20:31:35.808Z,73.44
2019-02-21T20:34:03.559Z,73.44
2019-02-21T20:36:30.811Z,73.39
2019-02-21T20:38:57.974Z,73.41
2019-02-21T20:41:25.297Z,73.43
2019-02-21T20:43:53.616Z,73.53
2019-02-21T20:46:20.796Z,73.58
2019-02-21T20:48:48.099Z,73.71
2019-02-21T20:51:15.362Z,73.76
2019-02-21T20:53:42.553Z,73.81
2019-02-21T20:56:10.176Z,73.93
2019-02-21T20:58:37.399Z,74.00
2019-02-21T21:01:06.841Z,74.04
2019-02-21T21:03:34.102Z,74.15
2019-02-21T21:06:01.468Z,74.28
2019-02-21T21:08:28.819Z,74.41
2019-02-21T21:10:56.063Z,74.59
2019-02-21T21:13:23.392Z,74.65
2019-02-21T21:15:50.492Z,74.79
2019-02-21T21:18:17.719Z,74.83
2019-02-21T21:20:44.793Z,74.93
2019-02-21T21:23:12.350Z,74.97
2019-02-21T21:25:39.716Z,74.96
2019-02-21T21:28:06.887Z,74.86
2019-02-21T21:30:34.102Z,74.84
2019-02-21T21:33:01.225Z,74.95
2019-02-21T21:35:28.767Z,75.10
2019-02-21T21:37:55.953Z,75.17
2019-02-21T21:40:23.189Z,75.05
2019-02-21T21:42:50.730Z,75.01
2019-02-21T21:45:18.462Z,75.16
2019-02-21T21:47:45.565Z,75.23
2019-02-21T21:50:14.243Z,75.31
2019-02-21T21:52:41.495Z,75.27
2019-02-21T21:55:08.942Z,75.22
2019-02-21T21:57:36.534Z,75.29
2019-02-21T22:00:05.373Z,74.98
2019-02-21T22:02:32.579Z,74.85
2019-02-21T22:05:00.316Z,74.87
2019-02-21T22:07:27.363Z,74.90
2019-02-21T22:09:54.755Z,74.78
2019-02-21T22:12:21.935Z,74.61
2019-02-21T22:14:49.509Z,74.38
2019-02-21T22:17:16.629Z,74.17
2019-02-21T22:19:43.809Z,74.03
2019-02-21T22:22:10.993Z,73.80
2019-02-21T22:24:38.331Z,72.85
2019-02-21T22:27:05.603Z,72.21
2019-02-21T22:29:32.805Z,72.36
2019-02-21T22:32:00.105Z,72.43
2019-02-21T22:34:27.317Z,72.37
2019-02-21T22:36:54.510Z,72.05
2019-02-21T22:39:21.732Z,71.94
2019-02-21T22:41:48.892Z,71.97
2019-02-21T22:44:16.002Z,72.05
2019-02-21T22:46:43.911Z,72.01
2019-02-21T22:49:11.086Z,71.97
2019-02-21T22:51:38.271Z,71.73
2019-02-21T22:54:05.597Z,71.44
2019-02-21T22:56:32.776Z,71.46
2019-02-21T22:59:00.044Z,71.48
2019-02-21T23:01:30.479Z,70.72
2019-02-21T23:04:38.163Z,71.20
2019-02-21T23:07:19.812Z,71.75
2019-02-21T23:09:46.972Z,72.65
2019-02-21T23:12:14.276Z,73.36
2019-02-21T23:14:41.567Z,73.91
2019-02-21T23:17:08.674Z,74.58
2019-02-21T23:19:35.885Z,75.17
2019-02-21T23:22:03.109Z,75.24
2019-02-21T23:24:30.269Z,75.46
2019-02-21T23:26:57.450Z,75.34
2019-02-21T23:29:24.638Z,75.46
2019-02-21T23:31:51.942Z,75.52
2019-02-21T23:34:29.902Z,75.59
2019-02-21T23:36:57.119Z,75.67
2019-02-21T23:39:24.331Z,75.69
2019-02-21T23:41:51.399Z,75.69
2019-02-21T23:44:18.685Z,75.71
2019-02-21T23:46:47.203Z,75.71
2019-02-21T23:49:14.529Z,75.47
2019-02-21T23:51:41.696Z,75.47
2019-02-21T23:54:08.882Z,75.18
2019-02-21T23:56:36.114Z,75.25
2019-02-21T23:59:03.774Z,75.37
